createdAt,value
2019-03-29T00:01:58.414Z,27.60
2019-03-29T00:04:28.854Z,26.62
2019-03-29T00:06:59.228Z,26.10
2019-03-29T00:09:29.585Z,25.35
2019-03-29T00:11:59.969Z,25.43
2019-03-29T00:14:30.347Z,26.02
2019-03-29T00:17:00.734Z,26.75
2019-03-29T00:19:31.155Z,26.57
2019-03-29T00:22:01.504Z,26.62
2019-03-29T00:24:31.886Z,26.30
2019-03-29T00:27:02.251Z,26.30
2019-03-29T00:29:32.653Z,26.17
2019-03-29T00:32:03.019Z,25.97
2019-03-29T00:34:33.400Z,25.32
2019-03-29T00:37:03.818Z,26.48
2019-03-29T00:39:34.195Z,27.62
2019-03-29T00:42:04.557Z,27.17
2019-03-29T00:44:34.938Z,26.42
2019-03-29T00:47:05.317Z,26.25
2019-03-29T00:49:35.679Z,26.75
2019-03-29T00:52:06.038Z,25.90
2019-03-29T00:54:36.427Z,26.02
2019-03-29T00:57:06.788Z,27.65
2019-03-29T00:59:37.167Z,25.68
2019-03-29T01:02:07.563Z,26.07
2019-03-29T01:04:37.902Z,26.62
2019-03-29T01:07:08.370Z,25.50
2019-03-29T01:09:38.747Z,25.32
2019-03-29T01:12:09.107Z,25.10
2019-03-29T01:14:39.486Z,24.50
2019-03-29T01:17:09.845Z,25.17
2019-03-29T01:19:40.223Z,24.07
2019-03-29T01:22:10.579Z,24.02
2019-03-29T01:24:41.461Z,24.40
2019-03-29T01:27:12.607Z,24.85
2019-03-29T01:29:42.983Z,24.70
2019-03-29T01:32:13.349Z,23.75
2019-03-29T01:34:43.726Z,24.82
2019-03-29T01:37:14.083Z,25.95
2019-03-29T01:39:44.474Z,27.90
2019-03-29T01:42:14.831Z,29.15
2019-03-29T01:44:45.215Z,26.17
2019-03-29T01:47:15.582Z,28.27
2019-03-29T01:49:45.960Z,30.02
2019-03-29T01:52:16.325Z,29.82
2019-03-29T01:54:46.708Z,31.52
2019-03-29T01:57:17.080Z,30.88
2019-03-29T01:59:47.443Z,31.95
2019-03-29T02:02:17.963Z,33.20
2019-03-29T02:04:48.340Z,33.85
2019-03-29T02:07:18.707Z,31.40
2019-03-29T02:09:49.087Z,34.05
2019-03-29T02:12:19.451Z,33.55
2019-03-29T02:14:50.210Z,34.85
2019-03-29T02:17:21.242Z,33.30
2019-03-29T02:19:52.289Z,31.73
2019-03-29T02:22:22.648Z,32.45
2019-03-29T02:24:53.033Z,32.70
2019-03-29T02:27:23.396Z,33.10
2019-03-29T02:29:53.781Z,33.78
2019-03-29T02:32:25.145Z,33.83
2019-03-29T02:34:55.910Z,33.67
2019-03-29T02:37:26.271Z,34.58
2019-03-29T02:39:56.659Z,35.70
2019-03-29T02:42:28.683Z,33.08
2019-03-29T02:44:59.065Z,34.38
2019-03-29T02:47:29.426Z,33.18
2019-03-29T02:49:59.815Z,35.08
2019-03-29T02:52:30.183Z,32.48
2019-03-29T02:55:00.748Z,32.98
2019-03-29T02:57:31.151Z,34.63
2019-03-29T03:00:01.529Z,35.10
2019-03-29T03:02:33.172Z,33.78
2019-03-29T03:05:03.945Z,34.85
2019-03-29T03:07:34.281Z,35.88
2019-03-29T03:10:11.316Z,34.60
2019-03-29T03:12:41.670Z,36.93
2019-03-29T03:15:12.772Z,37.70
2019-03-29T03:17:43.163Z,37.50
2019-03-29T03:20:15.913Z,36.90
2019-03-29T03:22:46.401Z,37.63
2019-03-29T03:25:16.763Z,36.08
2019-03-29T03:27:47.158Z,37.28
2019-03-29T03:30:17.536Z,38.73
2019-03-29T03:32:47.933Z,37.53
2019-03-29T03:35:19.152Z,37.48
2019-03-29T03:37:49.542Z,37.83
2019-03-29T03:40:19.982Z,39.33
2019-03-29T03:42:50.637Z,38.92
2019-03-29T03:45:20.997Z,37.75
2019-03-29T03:47:51.388Z,39.73
2019-03-29T03:50:40.445Z,39.25
2019-03-29T03:53:11.962Z,37.53
2019-03-29T03:55:43.221Z,38.33
2019-03-29T03:58:13.686Z,39.15
2019-03-29T04:00:57.051Z,37.23
2019-03-29T04:03:28.042Z,38.15
2019-03-29T04:05:59.557Z,39.35
2019-03-29T04:08:29.948Z,38.02
2019-03-29T04:11:00.306Z,39.55
2019-03-29T04:13:30.732Z,39.15
2019-03-29T04:16:01.095Z,39.63
2019-03-29T04:18:31.472Z,38.10
2019-03-29T04:21:02.805Z,40.78
2019-03-29T04:23:33.203Z,41.35
2019-03-29T04:26:03.649Z,41.42
2019-03-29T04:28:35.052Z,39.40
2019-03-29T04:31:05.433Z,40.15
2019-03-29T04:33:35.824Z,40.70
2019-03-29T04:36:06.319Z,41.13
2019-03-29T04:38:36.864Z,37.58
2019-03-29T04:41:07.227Z,40.08
2019-03-29T04:43:37.612Z,41.05
2019-03-29T04:46:09.046Z,40.20
2019-03-29T04:48:51.759Z,39.83
2019-03-29T04:51:22.125Z,39.23
2019-03-29T04:53:52.521Z,40.78
2019-03-29T04:56:22.879Z,41.02
2019-03-29T04:58:53.272Z,40.12
2019-03-29T05:01:23.636Z,39.85
2019-03-29T05:03:54.015Z,40.58
2019-03-29T05:06:24.387Z,41.65
2019-03-29T05:08:54.777Z,42.62
2019-03-29T05:11:25.254Z,39.73
2019-03-29T05:13:55.647Z,41.68
2019-03-29T05:16:26.016Z,42.10
2019-03-29T05:18:56.411Z,42.33
2019-03-29T05:21:26.768Z,41.35
2019-03-29T05:23:57.158Z,43.33
2019-03-29T05:26:27.889Z,41.92
2019-03-29T05:28:58.273Z,41.75
2019-03-29T05:31:28.644Z,38.53
2019-03-29T05:33:59.036Z,40.03
2019-03-29T05:36:29.395Z,41.15
2019-03-29T05:39:00.762Z,41.95
2019-03-29T05:41:32.894Z,41.08
2019-03-29T05:44:03.287Z,38.90
2019-03-29T05:46:33.658Z,38.80
2019-03-29T05:49:04.050Z,41.95
2019-03-29T05:51:34.442Z,41.85
2019-03-29T05:54:04.823Z,39.65
2019-03-29T05:56:35.179Z,40.33
2019-03-29T05:59:05.578Z,39.13
2019-03-29T06:01:35.954Z,39.75
2019-03-29T06:04:06.361Z,41.90
2019-03-29T06:06:36.801Z,41.13
2019-03-29T06:09:07.480Z,41.55
2019-03-29T06:11:37.856Z,40.23
2019-03-29T06:14:08.254Z,39.27
2019-03-29T06:16:39.500Z,39.63
2019-03-29T06:19:10.975Z,40.67
2019-03-29T06:21:41.342Z,40.58
2019-03-29T06:24:11.742Z,37.67
2019-03-29T06:26:42.113Z,39.65
2019-03-29T06:29:12.500Z,39.90
2019-03-29T06:31:42.878Z,40.17
2019-03-29T06:34:13.272Z,37.60
2019-03-29T06:36:44.451Z,37.15
2019-03-29T06:39:15.651Z,37.65
2019-03-29T06:41:46.034Z,38.58
2019-03-29T06:44:16.441Z,38.98
2019-03-29T06:46:46.811Z,37.28
2019-03-29T06:49:17.211Z,37.42
2019-03-29T06:51:47.577Z,34.92
2019-03-29T06:54:18.071Z,35.40
2019-03-29T06:56:48.446Z,34.53
2019-03-29T06:59:18.855Z,36.13
2019-03-29T07:01:49.222Z,34.13
2019-03-29T07:04:19.622Z,33.40
2019-03-29T07:06:49.986Z,33.98
2019-03-29T07:09:20.382Z,33.20
2019-03-29T07:11:50.757Z,32.23
2019-03-29T07:14:21.154Z,33.42
2019-03-29T07:16:51.527Z,32.17
2019-03-29T07:19:21.990Z,34.00
2019-03-29T07:21:52.435Z,33.42
2019-03-29T07:24:22.884Z,33.55
2019-03-29T07:26:53.242Z,31.87
2019-03-29T07:29:23.643Z,31.25
2019-03-29T07:31:55.020Z,31.17
2019-03-29T07:34:25.391Z,30.57
2019-03-29T07:36:55.787Z,30.32
2019-03-29T07:39:26.167Z,32.40
2019-03-29T07:41:56.559Z,31.20
2019-03-29T07:44:26.934Z,29.70
2019-03-29T07:46:57.322Z,28.35
2019-03-29T07:49:27.699Z,29.12
2019-03-29T07:51:58.090Z,28.42
2019-03-29T07:54:28.463Z,28.77
2019-03-29T07:56:58.858Z,28.57
2019-03-29T07:59:29.223Z,27.42
2019-03-29T08:01:59.608Z,28.42
2019-03-29T08:04:29.973Z,28.60
2019-03-29T08:07:00.361Z,25.45
2019-03-29T08:09:30.817Z,27.05
2019-03-29T08:12:01.196Z,27.10
2019-03-29T08:14:31.564Z,26.68
2019-03-29T08:17:03.070Z,26.73
2019-03-29T08:19:33.444Z,27.65
2019-03-29T08:22:03.833Z,25.15
2019-03-29T08:24:34.207Z,26.50
2019-03-29T08:27:05.568Z,26.93
2019-03-29T08:29:35.949Z,24.98
2019-03-29T08:32:06.347Z,24.50
2019-03-29T08:34:36.720Z,24.87
2019-03-29T08:37:07.117Z,24.20
2019-03-29T08:39:37.491Z,24.32
2019-03-29T08:42:07.891Z,25.10
2019-03-29T08:44:38.257Z,23.77
2019-03-29T08:47:08.648Z,23.57
2019-03-29T08:49:39.020Z,24.65
2019-03-29T08:52:09.413Z,21.55
2019-03-29T08:54:39.815Z,22.67
2019-03-29T08:57:10.739Z,22.37
2019-03-29T08:59:41.371Z,22.10
2019-03-29T09:02:11.763Z,21.50
2019-03-29T09:04:42.339Z,20.43
2019-03-29T09:07:12.731Z,21.37
2019-03-29T09:09:46.239Z,21.45
2019-03-29T09:12:16.416Z,20.80
2019-03-29T09:14:46.808Z,18.20
2019-03-29T09:17:17.207Z,18.95
2019-03-29T09:19:47.864Z,17.52
2019-03-29T09:22:18.239Z,19.67
2019-03-29T09:24:48.639Z,19.92
2019-03-29T09:27:19.015Z,18.35
2019-03-29T09:29:49.411Z,18.95
2019-03-29T09:32:20.363Z,19.70
2019-03-29T09:34:50.739Z,17.42
2019-03-29T09:37:21.113Z,17.02
2019-03-29T09:39:51.504Z,18.23
2019-03-29T09:42:29.022Z,17.45
2019-03-29T09:44:54.129Z,17.27
2019-03-29T09:47:24.507Z,16.17
2019-03-29T09:49:54.896Z,16.15
2019-03-29T09:52:25.274Z,16.42
2019-03-29T09:54:55.667Z,16.02
2019-03-29T09:57:36.777Z,15.60
2019-03-29T09:59:58.134Z,15.70
2019-03-29T10:02:28.504Z,15.93
2019-03-29T10:04:58.903Z,15.05
2019-03-29T10:07:29.275Z,13.90
2019-03-29T10:09:59.668Z,13.03
2019-03-29T10:12:42.751Z,12.98
2019-03-29T10:15:02.417Z,13.78
2019-03-29T10:17:33.044Z,12.45
2019-03-29T10:20:04.298Z,9.73
2019-03-29T10:22:37.475Z,10.28
2019-03-29T10:25:19.087Z,9.08
2019-03-29T10:27:44.552Z,9.48
2019-03-29T10:30:19.533Z,10.32
2019-03-29T10:32:50.067Z,10.58
2019-03-29T10:35:20.468Z,11.15
2019-03-29T10:37:50.925Z,10.58
2019-03-29T10:40:21.908Z,9.53
2019-03-29T10:42:58.193Z,9.00
2019-03-29T10:45:24.784Z,9.13
2019-03-29T10:47:55.262Z,7.33
2019-03-29T10:50:37.446Z,7.78
2019-03-29T10:53:07.794Z,7.15
2019-03-29T10:55:38.188Z,5.87
2019-03-29T10:58:09.883Z,5.60
2019-03-29T11:00:41.645Z,5.40
2019-03-29T11:03:12.006Z,5.33
2019-03-29T11:05:42.390Z,5.20
2019-03-29T11:08:12.760Z,5.00
2019-03-29T11:10:43.321Z,4.85
2019-03-29T11:13:14.452Z,5.08
2019-03-29T11:15:46.054Z,5.12
2019-03-29T11:18:16.484Z,5.50
2019-03-29T11:20:46.962Z,5.17
2019-03-29T11:23:17.319Z,4.62
2019-03-29T11:25:48.816Z,5.50
2019-03-29T11:28:19.456Z,5.17
2019-03-29T11:30:49.847Z,5.60
2019-03-29T11:33:20.217Z,4.58
2019-03-29T11:35:50.623Z,4.85
2019-03-29T11:38:20.982Z,4.25
2019-03-29T11:40:51.366Z,4.37
2019-03-29T11:43:27.161Z,4.00
2019-03-29T11:45:53.816Z,3.62
2019-03-29T11:48:24.176Z,3.90
2019-03-29T11:50:54.566Z,4.03
2019-03-29T11:53:25.011Z,3.40
2019-03-29T11:55:55.379Z,3.33
2019-03-29T11:58:25.770Z,3.20
2019-03-29T12:00:57.203Z,3.30
2019-03-29T12:03:27.579Z,3.95
2019-03-29T12:05:57.936Z,3.77
2019-03-29T12:08:28.311Z,3.87
2019-03-29T12:10:58.668Z,3.65
2019-03-29T12:13:40.417Z,4.75
2019-03-29T12:16:01.289Z,3.90
2019-03-29T12:18:32.238Z,4.17
2019-03-29T12:21:02.605Z,3.62
2019-03-29T12:23:33.000Z,3.25
2019-03-29T12:26:03.437Z,3.40
2019-03-29T12:28:33.824Z,3.33
2019-03-29T12:31:05.322Z,3.95
2019-03-29T12:33:35.775Z,3.87
2019-03-29T12:36:06.213Z,5.75
2019-03-29T12:38:36.601Z,4.08
2019-03-29T12:41:06.976Z,4.25
2019-03-29T12:43:37.358Z,4.40
2019-03-29T12:46:07.720Z,4.70
2019-03-29T12:48:39.175Z,4.75
2019-03-29T12:51:09.603Z,4.17
2019-03-29T12:53:39.994Z,4.17
2019-03-29T12:56:10.351Z,4.92
2019-03-29T12:58:40.785Z,4.55
2019-03-29T13:01:11.214Z,5.58
2019-03-29T13:03:41.606Z,5.15
2019-03-29T13:06:11.980Z,5.08
2019-03-29T13:08:42.373Z,5.60
2019-03-29T13:11:12.734Z,5.65
2019-03-29T13:13:43.118Z,6.08
2019-03-29T13:16:13.484Z,5.62
2019-03-29T13:18:43.867Z,5.80
2019-03-29T13:21:14.236Z,6.53
2019-03-29T13:23:44.621Z,7.55
2019-03-29T13:26:14.979Z,6.70
2019-03-29T13:28:45.544Z,7.33
2019-03-29T13:31:15.910Z,7.20
2019-03-29T13:33:46.313Z,6.28
2019-03-29T13:36:16.679Z,6.90
2019-03-29T13:38:47.078Z,7.17
2019-03-29T13:41:17.434Z,7.05
2019-03-29T13:43:47.834Z,6.95
2019-03-29T13:46:18.238Z,6.87
2019-03-29T13:48:48.628Z,6.85
2019-03-29T13:51:19.018Z,7.08
2019-03-29T13:53:49.441Z,6.87
2019-03-29T13:56:19.777Z,7.00
2019-03-29T13:58:50.147Z,7.20
2019-03-29T14:01:20.552Z,7.45
2019-03-29T14:03:50.911Z,6.90
2019-03-29T14:06:21.295Z,6.92
2019-03-29T14:08:51.655Z,6.50
2019-03-29T14:11:22.031Z,6.45
2019-03-29T14:13:55.581Z,6.45
2019-03-29T14:16:26.042Z,6.12
2019-03-29T14:18:56.398Z,5.67
2019-03-29T14:21:26.795Z,6.28
2019-03-29T14:23:57.185Z,6.60
2019-03-29T14:26:27.611Z,6.40
2019-03-29T14:28:57.987Z,6.30
2019-03-29T14:31:29.455Z,6.28
2019-03-29T14:33:59.812Z,5.92
2019-03-29T14:36:30.207Z,5.70
2019-03-29T14:39:00.567Z,5.78
2019-03-29T14:41:32.642Z,5.67
2019-03-29T14:44:03.002Z,5.40
2019-03-29T14:46:33.393Z,5.28
2019-03-29T14:49:03.764Z,6.15
2019-03-29T14:51:34.273Z,5.67
2019-03-29T14:54:04.860Z,5.70
2019-03-29T14:56:35.254Z,5.55
2019-03-29T14:59:05.661Z,4.90
2019-03-29T15:01:36.050Z,5.15
2019-03-29T15:04:06.717Z,5.12
2019-03-29T15:06:49.074Z,5.60
2019-03-29T15:09:20.385Z,5.17
2019-03-29T15:11:50.782Z,4.92
2019-03-29T15:14:23.159Z,5.33
2019-03-29T15:16:53.314Z,4.97
2019-03-29T15:19:23.773Z,5.55
2019-03-29T15:21:54.228Z,4.60
2019-03-29T15:24:24.599Z,5.00
2019-03-29T15:26:54.994Z,4.83
2019-03-29T15:29:25.382Z,4.85
2019-03-29T15:32:08.388Z,4.47
2019-03-29T15:34:38.743Z,5.30
2019-03-29T15:37:10.141Z,5.33
2019-03-29T15:39:40.716Z,4.72
2019-03-29T15:42:11.022Z,5.22
2019-03-29T15:44:41.299Z,5.53
2019-03-29T15:47:14.925Z,4.95
2019-03-29T15:49:55.300Z,5.17
2019-03-29T15:52:17.427Z,5.45
2019-03-29T15:54:47.802Z,5.33
2019-03-29T15:57:18.240Z,5.40
2019-03-29T15:59:48.555Z,5.03
2019-03-29T16:02:18.960Z,5.22
2019-03-29T16:04:49.321Z,4.70
2019-03-29T16:07:19.732Z,5.15
2019-03-29T16:09:50.089Z,4.72
2019-03-29T16:12:20.719Z,4.75
2019-03-29T16:14:51.087Z,4.75
2019-03-29T16:17:21.866Z,5.00
2019-03-29T16:19:52.335Z,5.87
2019-03-29T16:22:22.792Z,5.03
2019-03-29T16:24:54.320Z,5.45
2019-03-29T16:27:25.501Z,6.05
2019-03-29T16:29:55.986Z,6.58
2019-03-29T16:32:26.568Z,6.80
2019-03-29T16:34:57.046Z,6.05
2019-03-29T16:37:27.446Z,6.20
2019-03-29T16:39:58.784Z,6.45
2019-03-29T16:42:29.174Z,6.50
2019-03-29T16:44:59.536Z,6.00
2019-03-29T16:47:29.948Z,6.55
2019-03-29T16:50:00.408Z,7.40
2019-03-29T16:52:30.867Z,8.08
2019-03-29T16:55:12.425Z,7.78
2019-03-29T16:57:33.368Z,7.25
2019-03-29T17:00:12.138Z,6.72
2019-03-29T17:02:41.538Z,6.60
2019-03-29T17:05:13.236Z,7.08
2019-03-29T17:07:43.656Z,7.90
2019-03-29T17:10:33.422Z,7.45
2019-03-29T17:13:03.818Z,7.80
2019-03-29T17:15:35.251Z,7.70
2019-03-29T17:18:05.818Z,7.65
2019-03-29T17:20:36.183Z,7.40
2019-03-29T17:23:06.576Z,6.78
2019-03-29T17:25:36.940Z,7.12
2019-03-29T17:28:07.466Z,6.95
2019-03-29T17:30:42.755Z,7.65
2019-03-29T17:33:13.211Z,7.67
2019-03-29T17:35:43.579Z,8.05
2019-03-29T17:38:13.975Z,8.45
2019-03-29T17:40:44.350Z,7.12
2019-03-29T17:43:16.334Z,6.85
2019-03-29T17:45:46.689Z,7.08
2019-03-29T17:48:17.951Z,7.70
2019-03-29T17:50:48.323Z,7.00
2019-03-29T17:53:18.775Z,7.15
2019-03-29T17:55:49.174Z,7.10
2019-03-29T17:58:19.541Z,6.70
2019-03-29T18:00:50.206Z,7.03
2019-03-29T18:03:20.663Z,7.28
2019-03-29T18:05:51.058Z,7.80
2019-03-29T18:08:21.449Z,7.35
2019-03-29T18:10:51.835Z,6.97
2019-03-29T18:13:22.199Z,7.00
2019-03-29T18:15:52.630Z,7.75
2019-03-29T18:18:22.983Z,8.28
2019-03-29T18:20:53.548Z,7.87
2019-03-29T18:23:25.098Z,7.20
2019-03-29T18:25:56.797Z,8.30
2019-03-29T18:28:27.322Z,7.65
2019-03-29T18:30:57.833Z,7.90
2019-03-29T18:33:29.142Z,9.25
2019-03-29T18:35:59.516Z,8.65
2019-03-29T18:38:31.276Z,8.83
2019-03-29T18:41:01.707Z,11.43
2019-03-29T18:43:32.138Z,10.50
2019-03-29T18:46:02.515Z,10.60
2019-03-29T18:48:32.947Z,9.90
2019-03-29T18:51:03.340Z,9.38
2019-03-29T18:53:33.709Z,10.70
2019-03-29T18:56:04.284Z,10.58
2019-03-29T18:58:34.645Z,11.43
2019-03-29T19:01:06.312Z,10.45
2019-03-29T19:03:41.862Z,10.85
2019-03-29T19:58:14.993Z,18.52
2019-03-29T20:00:45.485Z,20.40
2019-03-29T20:03:15.992Z,23.30
2019-03-29T20:05:46.314Z,23.00
2019-03-29T20:08:16.703Z,20.50
2019-03-29T20:10:47.069Z,19.07
2019-03-29T20:13:17.457Z,17.80
2019-03-29T20:15:47.865Z,17.32
2019-03-29T20:18:18.250Z,17.57
2019-03-29T20:20:48.635Z,17.87
2019-03-29T20:23:19.012Z,17.70
2019-03-29T20:25:49.376Z,16.77
2019-03-29T20:28:19.777Z,16.30
2019-03-29T20:30:50.130Z,16.90
2019-03-29T20:33:20.526Z,17.23
2019-03-29T20:35:50.887Z,15.58
2019-03-29T20:38:21.450Z,15.80
2019-03-29T20:40:51.801Z,16.35
2019-03-29T20:43:22.189Z,16.45
2019-03-29T20:45:52.546Z,16.60
2019-03-29T20:48:22.979Z,15.98
2019-03-29T20:50:53.338Z,17.35
2019-03-29T20:53:23.726Z,16.57
2019-03-29T20:55:54.090Z,17.87
2019-03-29T20:58:24.484Z,18.37
2019-03-29T21:00:54.830Z,17.90
2019-03-29T21:03:25.262Z,16.73
2019-03-29T21:05:55.616Z,17.00
2019-03-29T21:08:26.027Z,18.65
2019-03-29T21:10:57.427Z,17.12
2019-03-29T21:13:27.938Z,18.42
2019-03-29T21:15:58.362Z,18.30
2019-03-29T21:18:32.145Z,18.70
2019-03-29T21:21:02.541Z,19.30
2019-03-29T21:23:33.015Z,28.45
2019-03-29T21:26:03.451Z,26.48
2019-03-29T21:28:35.971Z,22.05
2019-03-29T21:31:06.363Z,19.40
2019-03-29T21:33:36.846Z,19.42
2019-03-29T21:36:07.226Z,18.87
2019-03-29T21:38:37.797Z,19.07
2019-03-29T21:41:08.192Z,18.75
2019-03-29T21:43:38.651Z,18.55
2019-03-29T21:46:09.020Z,18.48
2019-03-29T21:48:39.594Z,18.92
2019-03-29T21:51:09.977Z,18.05
2019-03-29T21:53:43.990Z,19.10
2019-03-29T21:56:14.432Z,18.40
2019-03-29T21:58:48.356Z,19.15
2019-03-29T22:01:19.064Z,17.70
2019-03-29T22:03:49.564Z,17.98
2019-03-29T22:06:20.132Z,20.48
2019-03-29T22:08:50.576Z,20.45
2019-03-29T22:11:21.041Z,19.10
2019-03-29T22:13:51.647Z,18.90
2019-03-29T22:16:22.218Z,18.35
2019-03-29T22:18:53.811Z,16.97
2019-03-29T22:21:24.421Z,18.17
2019-03-29T22:23:54.909Z,18.52
2019-03-29T22:26:25.343Z,17.67
2019-03-29T22:28:55.821Z,17.40
2019-03-29T22:31:38.319Z,17.30
2019-03-29T22:34:08.870Z,17.37
2019-03-29T22:36:39.417Z,18.05
2019-03-29T22:39:09.981Z,16.02
2019-03-29T22:41:40.434Z,16.45
2019-03-29T22:44:10.885Z,16.67
2019-03-29T22:46:41.442Z,17.82
2019-03-29T22:49:11.903Z,16.57
2019-03-29T22:51:42.346Z,16.48
2019-03-29T22:54:12.870Z,18.00
2019-03-29T22:56:43.308Z,17.00
2019-03-29T22:59:13.751Z,16.17
2019-03-29T23:01:47.071Z,15.63
2019-03-29T23:04:17.482Z,16.20
2019-03-29T23:06:47.917Z,15.00
2019-03-29T23:09:18.279Z,17.00
2019-03-29T23:11:48.642Z,16.00
2019-03-29T23:14:19.028Z,15.55
2019-03-29T23:16:49.485Z,14.90
2019-03-29T23:19:19.862Z,15.40
2019-03-29T23:21:50.214Z,14.90
2019-03-29T23:24:20.606Z,14.35
2019-03-29T23:26:50.987Z,14.30
2019-03-29T23:29:21.506Z,15.03
2019-03-29T23:31:51.881Z,15.05
2019-03-29T23:34:22.244Z,15.43
2019-03-29T23:36:52.627Z,15.20
2019-03-29T23:39:22.987Z,14.73
2019-03-29T23:41:53.374Z,15.28
2019-03-29T23:44:23.735Z,16.17
2019-03-29T23:46:54.115Z,14.78
2019-03-29T23:49:24.518Z,14.83
2019-03-29T23:51:54.910Z,14.38
2019-03-29T23:54:25.267Z,15.40
2019-03-29T23:56:55.662Z,13.93
2019-03-29T23:59:27.198Z,14.95
